Observations for WELLINGTON INTL, New Zealand (NZWN)

NZWN 170030Z AUTO 34014KT 9999 NCD 14/07 Q0987 NOSIG
NZWN 170000Z AUTO 34011KT 300V010 9999 NCD 14/07 Q0988 NOSIG
NZWN 162330Z AUTO 34012G22KT 9999 NCD 13/07 Q0987 NOSIG 
NZWN 162300Z AUTO 34012KT 9999 NCD 13/07 Q0987 NOSIG
NZWN 162230Z AUTO 33013KT 9999 FEW080/// 13/06 Q0987 NOSIG  
NZWN 162200Z AUTO 35011KT 9999 FEW100/// 12/07 Q0987 NOSIG  
NZWN 162130Z AUTO 34009KT 9999 FEW080/// 12/07 Q0987 NOSIG  
NZWN 162100Z AUTO 35010KT 9999 NCD 12/07 Q0987 NOSIG
NZWN 162030Z AUTO 36011KT 9999 NCD 11/07 Q0986 NOSIG
NZWN 162000Z AUTO 33010KT 9999 NCD 11/06 Q0986  
NZWN 161930Z AUTO 33012KT 9999 NCD 11/07 Q0986 NOSIG
NZWN 161900Z AUTO 34011KT 9999 NCD 11/07 Q0985 NOSIG
NZWN 161830Z AUTO 34010KT 300V010 9999 NCD 11/07 Q0985 NOSIG
NZWN 161800Z AUTO 34009KT 310V010 9999 NCD 11/07 Q0985 NOSIG
NZWN 161730Z AUTO 34013KT 9999 NCD 11/07 Q0985 NOSIG
NZWN 161700Z AUTO 34012KT 310V010 9999 FEW023/// 11/07 Q0985 NOSIG  
NZWN 161630Z AUTO 36013KT 9999 BKN023/// BKN100/// 11/08 Q0985 NOSIG
NZWN 161600Z AUTO 03012KT 9999 BKN014/// 11/09 Q0986 BECMG SCT020   
NZWN 161530Z AUTO 01014KT 9999 BKN017/// 10/08 Q0986 NOSIG  
NZWN 161500Z AUTO 02012KT 9999 FEW055/// SCT095/// 09/08 Q0986 TEMPO 4000 RA
NZWN 161430Z AUTO 36013KT 320V030 8000 -RA FEW014/// BKN045/// OVC050/// 09/07 Q0986 TEMPO 4000 RA  
NZWN 161400Z AUTO 34008KT 300V010 5000 RA SCT015/// BKN020/// 11/09 Q0987 BECMG AT1500 9999 -RA TEMPO FM1500 4000 RA
NZWN 161330Z AUTO 35011KT 9999 -RA SCT019/// BKN025/// BKN034/// 11/08 Q0987 TEMPO 4000 RA  
NZWN 161300Z AUTO 35015G27KT 9999 VCSH FEW021/// BKN026/// OVC049/// 11/08 Q0988 TEMPO 4000 RA  
NZWN 161230Z AUTO 34013KT 320V030 9999 VCSH SCT025/// SCT035/// BKN048/// 12/07 Q0988 TEMPO 4000 RA 
NZWN 161200Z AUTO 34015G27KT 9999 DZ BKN025/// 12/08 Q0988 TEMPO 4000 RA
NZWN 161130Z AUTO 33015KT 300V360 9999 FEW028/// 12/06 Q0988 TEMPO 4000 RA  
NZWN 161100Z AUTO 33017G27KT 9999 NCD 12/05 Q0988 NOSIG 
NZWN 161030Z AUTO 34015G26KT 9999 NCD 12/06 Q0988 NOSIG 
NZWN 161000Z AUTO 34014KT 310V010 9999 NCD 12/06 Q0989 NOSIG
NZWN 160930Z AUTO 33013G23KT 290V360 9999 NCD 12/06 Q0989 NOSIG 
NZWN 160900Z AUTO 34013G26KT 310V020 9999 NCD 12/07 Q0989 NOSIG 
NZWN 160830Z AUTO 34010KT 310V020 9999 NCD 12/07 Q0989 NOSIG
NZWN 160800Z AUTO 35010KT 9999 NCD 12/07 Q0989 NOSIG
NZWN 160730Z AUTO 36010KT 320V020 9999 NCD 12/07 Q0989 NOSIG
NZWN 160700Z AUTO 36010KT 9999 NCD 12/08 Q0988 NOSIG
NZWN 160630Z AUTO 35012KT 9999 NCD 12/08 Q0988 NOSIG
NZWN 160600Z AUTO 35014KT 9999 SCT023/// 12/09 Q0988 NOSIG  
NZWN 160530Z AUTO 36017KT 9999 BKN022/// BKN028/// 13/09 Q0988 NOSIG
NZWN 160500Z AUTO 35013KT 9999 BKN022/// 13/09 Q0988 NOSIG  
NZWN 160430Z AUTO 35018KT 9999 BKN024/// 13/09 Q0987 NOSIG  
NZWN 160400Z AUTO 35017G28KT 9999 BKN022/// BKN027/// 13/09 Q0988 NOSIG 
NZWN 160330Z AUTO 35016KT 9999 SCT022/// 14/09 Q0987 NOSIG  
NZWN 160300Z AUTO 34015KT 9999 FEW023/// SCT038/// 13/09 Q0987 NOSIG
NZWN 160230Z AUTO 34016G28KT 310V010 9999 VCSH SCT025/// 14/08 Q0987 TEMPO 6000 SHRA FEW020TCU  
NZWN 160200Z AUTO 34017G28KT 9999 FEW024/// 14/09 Q0988 TEMPO 6000 SHRA 
NZWN 160130Z AUTO 35015KT 310V020 9999 VCSH BKN023/// 14/10 Q0988 TEMPO 6000 SHRA FEW020TCU 
NZWN 160100Z AUTO 35013KT 300V020 9999 VCSH BKN021/// 14/10 Q0988 TEMPO 6000 SHRA   
NZWN 160030Z AUTO 34013G24KT 310V020 9999 -SHRA FEW048/// 13/09 Q0988 TEMPO 6000 SHRA   
NZWN 160000Z AUTO 34014KT 9999 FEW090/// 12/07 Q0989 TEMPO 5000 SHRA FEW020TCU